<?xml version="1.0" encoding="UTF-8" standalone="no" ?>
<gpx xmlns="http://www.topografix.com/GPX/1/1" xmlns:xsi="http://www.w3.org/2001/XMLSchema-instance" xsi:schemaLocation="http://www.topografix.com/GPX/1/1 http://www.topografix.com/GPX/1/1/gpx.xsd" version="1.1" creator="VisuGPX - https://www.visugpx.com">
  <metadata>
    <name>Circuit n°212 - La Vallée en Barret</name>
    <desc><![CDATA[
]]></desc>
  </metadata>
  <trk>
    <name><![CDATA[Circuit n°212 - La Vallée en Barret]]></name>
    <trkseg>
      <trkpt lat="45.7102" lon="4.74477">
        <ele>306</ele>
        <time>2020-03-31T12:37:48.818Z</time>
      </trkpt>
      <trkpt lat="45.71008" lon="4.74467">
        <ele>305</ele>
        <time>2020-03-31T12:37:49.818Z</time>
      </trkpt>
      <trkpt lat="45.71014" lon="4.74432">
        <ele>306</ele>
        <time>2020-03-31T12:37:50.818Z</time>
      </trkpt>
      <trkpt lat="45.71012" lon="4.74406">
        <ele>307</ele>
        <time>2020-03-31T12:37:51.818Z</time>
      </trkpt>
      <trkpt lat="45.71017" lon="4.74356">
        <ele>309</ele>
        <time>2020-03-31T12:37:52.818Z</time>
      </trkpt>
      <trkpt lat="45.7102" lon="4.74316">
        <ele>311</ele>
        <time>2020-03-31T12:37:53.818Z</time>
      </trkpt>
      <trkpt lat="45.71032" lon="4.74297">
        <ele>311</ele>
        <time>2020-03-31T12:37:54.818Z</time>
      </trkpt>
      <trkpt lat="45.71044" lon="4.74289">
        <ele>312</ele>
        <time>2020-03-31T12:37:55.818Z</time>
      </trkpt>
      <trkpt lat="45.71054" lon="4.74271">
        <ele>313</ele>
        <time>2020-03-31T12:37:56.818Z</time>
      </trkpt>
      <trkpt lat="45.71047" lon="4.74263">
        <ele>313</ele>
        <time>2020-03-31T12:37:57.818Z</time>
      </trkpt>
      <trkpt lat="45.71035" lon="4.74272">
        <ele>312</ele>
        <time>2020-03-31T12:37:58.818Z</time>
      </trkpt>
      <trkpt lat="45.71021" lon="4.74273">
        <ele>312</ele>
        <time>2020-03-31T12:37:59.818Z</time>
      </trkpt>
      <trkpt lat="45.71005" lon="4.74273">
        <ele>312</ele>
        <time>2020-03-31T12:38:00.818Z</time>
      </trkpt>
      <trkpt lat="45.70991" lon="4.74269">
        <ele>311</ele>
        <time>2020-03-31T12:38:01.818Z</time>
      </trkpt>
      <trkpt lat="45.70946" lon="4.74231">
        <ele>310</ele>
        <time>2020-03-31T12:38:02.818Z</time>
      </trkpt>
      <trkpt lat="45.70862" lon="4.74171">
        <ele>309</ele>
        <time>2020-03-31T12:38:03.818Z</time>
      </trkpt>
      <trkpt lat="45.7083" lon="4.7415">
        <ele>308</ele>
        <time>2020-03-31T12:38:04.818Z</time>
      </trkpt>
      <trkpt lat="45.708" lon="4.74126">
        <ele>307</ele>
        <time>2020-03-31T12:38:05.818Z</time>
      </trkpt>
      <trkpt lat="45.70725" lon="4.74028">
        <ele>308</ele>
        <time>2020-03-31T12:38:06.818Z</time>
      </trkpt>
      <trkpt lat="45.7069" lon="4.73988">
        <ele>309</ele>
        <time>2020-03-31T12:38:07.818Z</time>
      </trkpt>
      <trkpt lat="45.70633" lon="4.73943">
        <ele>311</ele>
        <time>2020-03-31T12:38:08.818Z</time>
      </trkpt>
      <trkpt lat="45.70549" lon="4.73865">
        <ele>312</ele>
        <time>2020-03-31T12:38:09.818Z</time>
      </trkpt>
      <trkpt lat="45.70532" lon="4.7384">
        <ele>312</ele>
        <time>2020-03-31T12:38:10.818Z</time>
      </trkpt>
      <trkpt lat="45.70499" lon="4.73763">
        <ele>312</ele>
        <time>2020-03-31T12:38:11.818Z</time>
      </trkpt>
      <trkpt lat="45.70478" lon="4.7365">
        <ele>310</ele>
        <time>2020-03-31T12:38:12.818Z</time>
      </trkpt>
      <trkpt lat="45.70463" lon="4.73556">
        <ele>309</ele>
        <time>2020-03-31T12:38:13.818Z</time>
      </trkpt>
      <trkpt lat="45.70451" lon="4.73497">
        <ele>309</ele>
        <time>2020-03-31T12:38:14.818Z</time>
      </trkpt>
      <trkpt lat="45.70451" lon="4.73427">
        <ele>310</ele>
        <time>2020-03-31T12:38:15.818Z</time>
      </trkpt>
      <trkpt lat="45.70448" lon="4.73346">
        <ele>309</ele>
        <time>2020-03-31T12:38:16.818Z</time>
      </trkpt>
      <trkpt lat="45.70448" lon="4.7328">
        <ele>309</ele>
        <time>2020-03-31T12:38:17.818Z</time>
      </trkpt>
      <trkpt lat="45.70433" lon="4.73243">
        <ele>308</ele>
        <time>2020-03-31T12:38:18.818Z</time>
      </trkpt>
      <trkpt lat="45.70408" lon="4.73196">
        <ele>308</ele>
        <time>2020-03-31T12:38:19.818Z</time>
      </trkpt>
      <trkpt lat="45.70393" lon="4.73164">
        <ele>308</ele>
        <time>2020-03-31T12:38:20.818Z</time>
      </trkpt>
      <trkpt lat="45.70366" lon="4.73139">
        <ele>308</ele>
        <time>2020-03-31T12:38:21.818Z</time>
      </trkpt>
      <trkpt lat="45.70325" lon="4.73082">
        <ele>307</ele>
        <time>2020-03-31T12:38:22.818Z</time>
      </trkpt>
      <trkpt lat="45.70267" lon="4.72996">
        <ele>309</ele>
        <time>2020-03-31T12:38:23.818Z</time>
      </trkpt>
      <trkpt lat="45.7023" lon="4.72938">
        <ele>308</ele>
        <time>2020-03-31T12:38:24.818Z</time>
      </trkpt>
      <trkpt lat="45.70219" lon="4.72922">
        <ele>308</ele>
        <time>2020-03-31T12:38:25.818Z</time>
      </trkpt>
      <trkpt lat="45.70164" lon="4.72802">
        <ele>308</ele>
        <time>2020-03-31T12:38:26.818Z</time>
      </trkpt>
      <trkpt lat="45.70127" lon="4.72714">
        <ele>309</ele>
        <time>2020-03-31T12:38:27.818Z</time>
      </trkpt>
      <trkpt lat="45.70104" lon="4.72653">
        <ele>308</ele>
        <time>2020-03-31T12:38:28.818Z</time>
      </trkpt>
      <trkpt lat="45.7004" lon="4.72656">
        <ele>306</ele>
        <time>2020-03-31T12:38:29.818Z</time>
      </trkpt>
      <trkpt lat="45.70007" lon="4.72657">
        <ele>305</ele>
        <time>2020-03-31T12:38:30.818Z</time>
      </trkpt>
      <trkpt lat="45.69978" lon="4.72678">
        <ele>304</ele>
        <time>2020-03-31T12:38:31.818Z</time>
      </trkpt>
      <trkpt lat="45.69942" lon="4.72709">
        <ele>304</ele>
        <time>2020-03-31T12:38:32.818Z</time>
      </trkpt>
      <trkpt lat="45.69905" lon="4.72739">
        <ele>304</ele>
        <time>2020-03-31T12:38:33.818Z</time>
      </trkpt>
      <trkpt lat="45.69893" lon="4.72743">
        <ele>303</ele>
        <time>2020-03-31T12:38:34.818Z</time>
      </trkpt>
      <trkpt lat="45.69864" lon="4.72751">
        <ele>302</ele>
        <time>2020-03-31T12:38:35.818Z</time>
      </trkpt>
      <trkpt lat="45.69815" lon="4.7275">
        <ele>299</ele>
        <time>2020-03-31T12:38:36.818Z</time>
      </trkpt>
      <trkpt lat="45.69758" lon="4.72751">
        <ele>296</ele>
        <time>2020-03-31T12:38:37.818Z</time>
      </trkpt>
      <trkpt lat="45.69737" lon="4.7275">
        <ele>295</ele>
        <time>2020-03-31T12:38:38.818Z</time>
      </trkpt>
      <trkpt lat="45.6969" lon="4.7277">
        <ele>297</ele>
        <time>2020-03-31T12:38:39.818Z</time>
      </trkpt>
      <trkpt lat="45.69631" lon="4.72811">
        <ele>299</ele>
        <time>2020-03-31T12:38:40.818Z</time>
      </trkpt>
      <trkpt lat="45.69576" lon="4.7286">
        <ele>298</ele>
        <time>2020-03-31T12:38:41.818Z</time>
      </trkpt>
      <trkpt lat="45.69546" lon="4.72884">
        <ele>294</ele>
        <time>2020-03-31T12:38:42.818Z</time>
      </trkpt>
      <trkpt lat="45.69512" lon="4.72904">
        <ele>292</ele>
        <time>2020-03-31T12:38:43.818Z</time>
      </trkpt>
      <trkpt lat="45.69478" lon="4.72926">
        <ele>288</ele>
        <time>2020-03-31T12:38:44.818Z</time>
      </trkpt>
      <trkpt lat="45.69462" lon="4.72933">
        <ele>286</ele>
        <time>2020-03-31T12:38:45.818Z</time>
      </trkpt>
      <trkpt lat="45.69445" lon="4.72943">
        <ele>284</ele>
        <time>2020-03-31T12:38:46.818Z</time>
      </trkpt>
      <trkpt lat="45.69387" lon="4.7293">
        <ele>279</ele>
        <time>2020-03-31T12:38:47.818Z</time>
      </trkpt>
      <trkpt lat="45.69347" lon="4.7292">
        <ele>276</ele>
        <time>2020-03-31T12:38:48.818Z</time>
      </trkpt>
      <trkpt lat="45.69325" lon="4.72911">
        <ele>273</ele>
        <time>2020-03-31T12:38:49.818Z</time>
      </trkpt>
      <trkpt lat="45.69323" lon="4.72895">
        <ele>269</ele>
        <time>2020-03-31T12:38:50.818Z</time>
      </trkpt>
      <trkpt lat="45.6933" lon="4.72876">
        <ele>267</ele>
        <time>2020-03-31T12:38:51.818Z</time>
      </trkpt>
      <trkpt lat="45.69349" lon="4.72863">
        <ele>267</ele>
        <time>2020-03-31T12:38:52.818Z</time>
      </trkpt>
      <trkpt lat="45.69366" lon="4.72855">
        <ele>268</ele>
        <time>2020-03-31T12:38:53.818Z</time>
      </trkpt>
      <trkpt lat="45.69377" lon="4.72847">
        <ele>268</ele>
        <time>2020-03-31T12:38:54.818Z</time>
      </trkpt>
      <trkpt lat="45.69398" lon="4.72839">
        <ele>269</ele>
        <time>2020-03-31T12:38:55.818Z</time>
      </trkpt>
      <trkpt lat="45.69406" lon="4.72831">
        <ele>269</ele>
        <time>2020-03-31T12:38:56.818Z</time>
      </trkpt>
      <trkpt lat="45.69411" lon="4.72775">
        <ele>258</ele>
        <time>2020-03-31T12:38:57.818Z</time>
      </trkpt>
      <trkpt lat="45.69418" lon="4.72731">
        <ele>251</ele>
        <time>2020-03-31T12:38:58.818Z</time>
      </trkpt>
      <trkpt lat="45.69432" lon="4.72675">
        <ele>247</ele>
        <time>2020-03-31T12:38:59.818Z</time>
      </trkpt>
      <trkpt lat="45.69438" lon="4.72635">
        <ele>243</ele>
        <time>2020-03-31T12:39:00.818Z</time>
      </trkpt>
      <trkpt lat="45.69435" lon="4.72612">
        <ele>239</ele>
        <time>2020-03-31T12:39:01.818Z</time>
      </trkpt>
      <trkpt lat="45.69424" lon="4.72607">
        <ele>237</ele>
        <time>2020-03-31T12:39:02.818Z</time>
      </trkpt>
      <trkpt lat="45.69421" lon="4.72596">
        <ele>235</ele>
        <time>2020-03-31T12:39:03.818Z</time>
      </trkpt>
      <trkpt lat="45.69407" lon="4.72593">
        <ele>234</ele>
        <time>2020-03-31T12:39:04.818Z</time>
      </trkpt>
      <trkpt lat="45.69422" lon="4.72547">
        <ele>233</ele>
        <time>2020-03-31T12:39:05.818Z</time>
      </trkpt>
      <trkpt lat="45.69423" lon="4.72503">
        <ele>233</ele>
        <time>2020-03-31T12:39:06.818Z</time>
      </trkpt>
      <trkpt lat="45.69417" lon="4.72461">
        <ele>235</ele>
        <time>2020-03-31T12:39:07.818Z</time>
      </trkpt>
      <trkpt lat="45.69406" lon="4.72419">
        <ele>239</ele>
        <time>2020-03-31T12:39:08.818Z</time>
      </trkpt>
      <trkpt lat="45.69404" lon="4.72386">
        <ele>243</ele>
        <time>2020-03-31T12:39:09.818Z</time>
      </trkpt>
      <trkpt lat="45.69425" lon="4.72396">
        <ele>241</ele>
        <time>2020-03-31T12:39:10.818Z</time>
      </trkpt>
      <trkpt lat="45.69452" lon="4.72415">
        <ele>238</ele>
        <time>2020-03-31T12:39:11.818Z</time>
      </trkpt>
      <trkpt lat="45.69465" lon="4.72422">
        <ele>238</ele>
        <time>2020-03-31T12:39:12.818Z</time>
      </trkpt>
      <trkpt lat="45.69476" lon="4.72414">
        <ele>238</ele>
        <time>2020-03-31T12:39:13.818Z</time>
      </trkpt>
      <trkpt lat="45.69462" lon="4.72392">
        <ele>240</ele>
        <time>2020-03-31T12:39:14.818Z</time>
      </trkpt>
      <trkpt lat="45.6943" lon="4.72337">
        <ele>248</ele>
        <time>2020-03-31T12:39:15.818Z</time>
      </trkpt>
      <trkpt lat="45.69444" lon="4.72305">
        <ele>251</ele>
        <time>2020-03-31T12:39:16.818Z</time>
      </trkpt>
      <trkpt lat="45.69443" lon="4.72254">
        <ele>257</ele>
        <time>2020-03-31T12:39:17.818Z</time>
      </trkpt>
      <trkpt lat="45.6944" lon="4.72202">
        <ele>262</ele>
        <time>2020-03-31T12:39:18.818Z</time>
      </trkpt>
      <trkpt lat="45.69434" lon="4.7215">
        <ele>267</ele>
        <time>2020-03-31T12:39:19.818Z</time>
      </trkpt>
      <trkpt lat="45.69436" lon="4.72114">
        <ele>270</ele>
        <time>2020-03-31T12:39:20.818Z</time>
      </trkpt>
      <trkpt lat="45.6943" lon="4.72097">
        <ele>274</ele>
        <time>2020-03-31T12:39:21.818Z</time>
      </trkpt>
      <trkpt lat="45.69437" lon="4.71969">
        <ele>283</ele>
        <time>2020-03-31T12:39:22.818Z</time>
      </trkpt>
      <trkpt lat="45.69429" lon="4.71937">
        <ele>285</ele>
        <time>2020-03-31T12:39:23.818Z</time>
      </trkpt>
      <trkpt lat="45.69405" lon="4.71898">
        <ele>287</ele>
        <time>2020-03-31T12:39:24.818Z</time>
      </trkpt>
      <trkpt lat="45.69365" lon="4.71842">
        <ele>288</ele>
        <time>2020-03-31T12:39:25.818Z</time>
      </trkpt>
      <trkpt lat="45.69319" lon="4.71762">
        <ele>292</ele>
        <time>2020-03-31T12:39:26.818Z</time>
      </trkpt>
      <trkpt lat="45.69276" lon="4.71702">
        <ele>294</ele>
        <time>2020-03-31T12:39:27.818Z</time>
      </trkpt>
      <trkpt lat="45.69249" lon="4.71659">
        <ele>295</ele>
        <time>2020-03-31T12:39:28.818Z</time>
      </trkpt>
      <trkpt lat="45.69238" lon="4.71636">
        <ele>295</ele>
        <time>2020-03-31T12:39:29.818Z</time>
      </trkpt>
      <trkpt lat="45.69225" lon="4.71602">
        <ele>296</ele>
        <time>2020-03-31T12:39:30.818Z</time>
      </trkpt>
      <trkpt lat="45.69211" lon="4.71581">
        <ele>296</ele>
        <time>2020-03-31T12:39:31.818Z</time>
      </trkpt>
      <trkpt lat="45.69186" lon="4.71561">
        <ele>297</ele>
        <time>2020-03-31T12:39:32.818Z</time>
      </trkpt>
      <trkpt lat="45.69159" lon="4.71549">
        <ele>298</ele>
        <time>2020-03-31T12:39:33.818Z</time>
      </trkpt>
      <trkpt lat="45.69132" lon="4.71545">
        <ele>298</ele>
        <time>2020-03-31T12:39:34.818Z</time>
      </trkpt>
      <trkpt lat="45.69086" lon="4.71522">
        <ele>299</ele>
        <time>2020-03-31T12:39:35.818Z</time>
      </trkpt>
      <trkpt lat="45.69052" lon="4.71505">
        <ele>299</ele>
        <time>2020-03-31T12:39:36.818Z</time>
      </trkpt>
      <trkpt lat="45.69006" lon="4.71472">
        <ele>300</ele>
        <time>2020-03-31T12:39:37.818Z</time>
      </trkpt>
      <trkpt lat="45.68964" lon="4.71441">
        <ele>301</ele>
        <time>2020-03-31T12:39:38.818Z</time>
      </trkpt>
      <trkpt lat="45.68947" lon="4.71427">
        <ele>302</ele>
        <time>2020-03-31T12:39:39.818Z</time>
      </trkpt>
      <trkpt lat="45.68943" lon="4.71469">
        <ele>298</ele>
        <time>2020-03-31T12:39:40.818Z</time>
      </trkpt>
      <trkpt lat="45.68939" lon="4.71536">
        <ele>292</ele>
        <time>2020-03-31T12:39:41.818Z</time>
      </trkpt>
      <trkpt lat="45.68937" lon="4.71565">
        <ele>289</ele>
        <time>2020-03-31T12:39:42.818Z</time>
      </trkpt>
      <trkpt lat="45.68937" lon="4.7159">
        <ele>286</ele>
        <time>2020-03-31T12:39:43.818Z</time>
      </trkpt>
      <trkpt lat="45.6894" lon="4.71606">
        <ele>284</ele>
        <time>2020-03-31T12:39:44.818Z</time>
      </trkpt>
      <trkpt lat="45.6893" lon="4.71632">
        <ele>280</ele>
        <time>2020-03-31T12:39:45.818Z</time>
      </trkpt>
      <trkpt lat="45.68903" lon="4.71653">
        <ele>275</ele>
        <time>2020-03-31T12:39:46.818Z</time>
      </trkpt>
      <trkpt lat="45.68872" lon="4.71662">
        <ele>269</ele>
        <time>2020-03-31T12:39:47.818Z</time>
      </trkpt>
      <trkpt lat="45.68868" lon="4.71638">
        <ele>272</ele>
        <time>2020-03-31T12:39:48.818Z</time>
      </trkpt>
      <trkpt lat="45.68857" lon="4.7162">
        <ele>273</ele>
        <time>2020-03-31T12:39:49.818Z</time>
      </trkpt>
      <trkpt lat="45.6884" lon="4.716">
        <ele>273</ele>
        <time>2020-03-31T12:39:50.818Z</time>
      </trkpt>
      <trkpt lat="45.68816" lon="4.71586">
        <ele>272</ele>
        <time>2020-03-31T12:39:51.818Z</time>
      </trkpt>
      <trkpt lat="45.68803" lon="4.71582">
        <ele>271</ele>
        <time>2020-03-31T12:39:52.818Z</time>
      </trkpt>
      <trkpt lat="45.68798" lon="4.71598">
        <ele>269</ele>
        <time>2020-03-31T12:39:53.818Z</time>
      </trkpt>
      <trkpt lat="45.68795" lon="4.71617">
        <ele>268</ele>
        <time>2020-03-31T12:39:54.818Z</time>
      </trkpt>
      <trkpt lat="45.68779" lon="4.71638">
        <ele>268</ele>
        <time>2020-03-31T12:39:55.818Z</time>
      </trkpt>
      <trkpt lat="45.68748" lon="4.71669">
        <ele>270</ele>
        <time>2020-03-31T12:39:56.818Z</time>
      </trkpt>
      <trkpt lat="45.68728" lon="4.71697">
        <ele>275</ele>
        <time>2020-03-31T12:39:57.818Z</time>
      </trkpt>
      <trkpt lat="45.68704" lon="4.71707">
        <ele>278</ele>
        <time>2020-03-31T12:39:58.818Z</time>
      </trkpt>
      <trkpt lat="45.68682" lon="4.71739">
        <ele>282</ele>
        <time>2020-03-31T12:39:59.818Z</time>
      </trkpt>
      <trkpt lat="45.68667" lon="4.71782">
        <ele>288</ele>
        <time>2020-03-31T12:40:00.818Z</time>
      </trkpt>
      <trkpt lat="45.68655" lon="4.71814">
        <ele>291</ele>
        <time>2020-03-31T12:40:01.818Z</time>
      </trkpt>
      <trkpt lat="45.68651" lon="4.71837">
        <ele>293</ele>
        <time>2020-03-31T12:40:02.818Z</time>
      </trkpt>
      <trkpt lat="45.68657" lon="4.71845">
        <ele>293</ele>
        <time>2020-03-31T12:40:03.818Z</time>
      </trkpt>
      <trkpt lat="45.68626" lon="4.71936">
        <ele>300</ele>
        <time>2020-03-31T12:40:04.818Z</time>
      </trkpt>
      <trkpt lat="45.68612" lon="4.71982">
        <ele>301</ele>
        <time>2020-03-31T12:40:05.818Z</time>
      </trkpt>
      <trkpt lat="45.68602" lon="4.71996">
        <ele>301</ele>
        <time>2020-03-31T12:40:06.818Z</time>
      </trkpt>
      <trkpt lat="45.68565" lon="4.71971">
        <ele>305</ele>
        <time>2020-03-31T12:40:07.818Z</time>
      </trkpt>
      <trkpt lat="45.68569" lon="4.72">
        <ele>304</ele>
        <time>2020-03-31T12:40:08.818Z</time>
      </trkpt>
      <trkpt lat="45.68568" lon="4.72035">
        <ele>305</ele>
        <time>2020-03-31T12:40:09.818Z</time>
      </trkpt>
      <trkpt lat="45.68581" lon="4.72057">
        <ele>304</ele>
        <time>2020-03-31T12:40:10.818Z</time>
      </trkpt>
      <trkpt lat="45.68601" lon="4.72097">
        <ele>303</ele>
        <time>2020-03-31T12:40:11.818Z</time>
      </trkpt>
      <trkpt lat="45.68619" lon="4.72153">
        <ele>306</ele>
        <time>2020-03-31T12:40:12.818Z</time>
      </trkpt>
      <trkpt lat="45.68633" lon="4.72217">
        <ele>309</ele>
        <time>2020-03-31T12:40:13.818Z</time>
      </trkpt>
      <trkpt lat="45.68665" lon="4.72327">
        <ele>311</ele>
        <time>2020-03-31T12:40:14.818Z</time>
      </trkpt>
      <trkpt lat="45.68657" lon="4.72362">
        <ele>311</ele>
        <time>2020-03-31T12:40:15.818Z</time>
      </trkpt>
      <trkpt lat="45.68651" lon="4.72407">
        <ele>312</ele>
        <time>2020-03-31T12:40:16.818Z</time>
      </trkpt>
      <trkpt lat="45.68669" lon="4.7246">
        <ele>311</ele>
        <time>2020-03-31T12:40:17.818Z</time>
      </trkpt>
      <trkpt lat="45.68648" lon="4.72539">
        <ele>311</ele>
        <time>2020-03-31T12:40:18.818Z</time>
      </trkpt>
      <trkpt lat="45.68634" lon="4.72576">
        <ele>311</ele>
        <time>2020-03-31T12:40:19.818Z</time>
      </trkpt>
      <trkpt lat="45.68625" lon="4.72597">
        <ele>311</ele>
        <time>2020-03-31T12:40:20.818Z</time>
      </trkpt>
      <trkpt lat="45.68599" lon="4.72547">
        <ele>313</ele>
        <time>2020-03-31T12:40:21.818Z</time>
      </trkpt>
      <trkpt lat="45.68578" lon="4.72494">
        <ele>315</ele>
        <time>2020-03-31T12:40:22.818Z</time>
      </trkpt>
      <trkpt lat="45.68548" lon="4.72458">
        <ele>316</ele>
        <time>2020-03-31T12:40:23.818Z</time>
      </trkpt>
      <trkpt lat="45.68514" lon="4.72421">
        <ele>318</ele>
        <time>2020-03-31T12:40:24.818Z</time>
      </trkpt>
      <trkpt lat="45.68491" lon="4.72388">
        <ele>320</ele>
        <time>2020-03-31T12:40:25.818Z</time>
      </trkpt>
      <trkpt lat="45.68456" lon="4.72352">
        <ele>322</ele>
        <time>2020-03-31T12:40:26.818Z</time>
      </trkpt>
      <trkpt lat="45.68417" lon="4.723">
        <ele>326</ele>
        <time>2020-03-31T12:40:27.818Z</time>
      </trkpt>
      <trkpt lat="45.68365" lon="4.72262">
        <ele>329</ele>
        <time>2020-03-31T12:40:28.818Z</time>
      </trkpt>
      <trkpt lat="45.68289" lon="4.72197">
        <ele>329</ele>
        <time>2020-03-31T12:40:29.818Z</time>
      </trkpt>
      <trkpt lat="45.68247" lon="4.72156">
        <ele>329</ele>
        <time>2020-03-31T12:40:30.818Z</time>
      </trkpt>
      <trkpt lat="45.68205" lon="4.72113">
        <ele>328</ele>
        <time>2020-03-31T12:40:31.818Z</time>
      </trkpt>
      <trkpt lat="45.68147" lon="4.72046">
        <ele>329</ele>
        <time>2020-03-31T12:40:32.818Z</time>
      </trkpt>
      <trkpt lat="45.68115" lon="4.72007">
        <ele>330</ele>
        <time>2020-03-31T12:40:33.818Z</time>
      </trkpt>
      <trkpt lat="45.68072" lon="4.71965">
        <ele>331</ele>
        <time>2020-03-31T12:40:34.818Z</time>
      </trkpt>
      <trkpt lat="45.68011" lon="4.71885">
        <ele>329</ele>
        <time>2020-03-31T12:40:35.818Z</time>
      </trkpt>
      <trkpt lat="45.68004" lon="4.7195">
        <ele>329</ele>
        <time>2020-03-31T12:40:36.818Z</time>
      </trkpt>
      <trkpt lat="45.67991" lon="4.72026">
        <ele>330</ele>
        <time>2020-03-31T12:40:37.818Z</time>
      </trkpt>
      <trkpt lat="45.67975" lon="4.72081">
        <ele>329</ele>
        <time>2020-03-31T12:40:38.818Z</time>
      </trkpt>
      <trkpt lat="45.67901" lon="4.72024">
        <ele>328</ele>
        <time>2020-03-31T12:40:39.818Z</time>
      </trkpt>
      <trkpt lat="45.67856" lon="4.71987">
        <ele>325</ele>
        <time>2020-03-31T12:40:40.818Z</time>
      </trkpt>
      <trkpt lat="45.6779" lon="4.71935">
        <ele>323</ele>
        <time>2020-03-31T12:40:41.818Z</time>
      </trkpt>
      <trkpt lat="45.67736" lon="4.71915">
        <ele>322</ele>
        <time>2020-03-31T12:40:42.818Z</time>
      </trkpt>
      <trkpt lat="45.67673" lon="4.71866">
        <ele>323</ele>
        <time>2020-03-31T12:40:43.818Z</time>
      </trkpt>
      <trkpt lat="45.67577" lon="4.71771">
        <ele>322</ele>
        <time>2020-03-31T12:40:44.818Z</time>
      </trkpt>
      <trkpt lat="45.67541" lon="4.71734">
        <ele>322</ele>
        <time>2020-03-31T12:40:45.818Z</time>
      </trkpt>
      <trkpt lat="45.67494" lon="4.71749">
        <ele>321</ele>
        <time>2020-03-31T12:40:46.818Z</time>
      </trkpt>
      <trkpt lat="45.67457" lon="4.71764">
        <ele>319</ele>
        <time>2020-03-31T12:40:47.818Z</time>
      </trkpt>
      <trkpt lat="45.67411" lon="4.71765">
        <ele>319</ele>
        <time>2020-03-31T12:40:48.818Z</time>
      </trkpt>
      <trkpt lat="45.67338" lon="4.71758">
        <ele>318</ele>
        <time>2020-03-31T12:40:49.818Z</time>
      </trkpt>
      <trkpt lat="45.67284" lon="4.71764">
        <ele>317</ele>
        <time>2020-03-31T12:40:50.818Z</time>
      </trkpt>
      <trkpt lat="45.67245" lon="4.71766">
        <ele>316</ele>
        <time>2020-03-31T12:40:51.818Z</time>
      </trkpt>
      <trkpt lat="45.67196" lon="4.71756">
        <ele>317</ele>
        <time>2020-03-31T12:40:52.818Z</time>
      </trkpt>
      <trkpt lat="45.6709" lon="4.71756">
        <ele>317</ele>
        <time>2020-03-31T12:40:53.818Z</time>
      </trkpt>
      <trkpt lat="45.67084" lon="4.71844">
        <ele>314</ele>
        <time>2020-03-31T12:40:54.818Z</time>
      </trkpt>
      <trkpt lat="45.67084" lon="4.71899">
        <ele>312</ele>
        <time>2020-03-31T12:40:55.818Z</time>
      </trkpt>
      <trkpt lat="45.6708" lon="4.71944">
        <ele>311</ele>
        <time>2020-03-31T12:40:56.818Z</time>
      </trkpt>
      <trkpt lat="45.67073" lon="4.71993">
        <ele>311</ele>
        <time>2020-03-31T12:40:57.818Z</time>
      </trkpt>
      <trkpt lat="45.67067" lon="4.72058">
        <ele>312</ele>
        <time>2020-03-31T12:40:58.818Z</time>
      </trkpt>
      <trkpt lat="45.67055" lon="4.72111">
        <ele>313</ele>
        <time>2020-03-31T12:40:59.818Z</time>
      </trkpt>
      <trkpt lat="45.67041" lon="4.7213">
        <ele>313</ele>
        <time>2020-03-31T12:41:00.818Z</time>
      </trkpt>
      <trkpt lat="45.67023" lon="4.7215">
        <ele>313</ele>
        <time>2020-03-31T12:41:01.818Z</time>
      </trkpt>
      <trkpt lat="45.67015" lon="4.72179">
        <ele>312</ele>
        <time>2020-03-31T12:41:02.818Z</time>
      </trkpt>
      <trkpt lat="45.67015" lon="4.72228">
        <ele>310</ele>
        <time>2020-03-31T12:41:03.818Z</time>
      </trkpt>
      <trkpt lat="45.67011" lon="4.7229">
        <ele>308</ele>
        <time>2020-03-31T12:41:04.818Z</time>
      </trkpt>
      <trkpt lat="45.67009" lon="4.72329">
        <ele>307</ele>
        <time>2020-03-31T12:41:05.818Z</time>
      </trkpt>
      <trkpt lat="45.6701" lon="4.72348">
        <ele>306</ele>
        <time>2020-03-31T12:41:06.818Z</time>
      </trkpt>
      <trkpt lat="45.67014" lon="4.72375">
        <ele>305</ele>
        <time>2020-03-31T12:41:07.818Z</time>
      </trkpt>
      <trkpt lat="45.67022" lon="4.724">
        <ele>304</ele>
        <time>2020-03-31T12:41:08.818Z</time>
      </trkpt>
      <trkpt lat="45.67045" lon="4.72431">
        <ele>305</ele>
        <time>2020-03-31T12:41:09.818Z</time>
      </trkpt>
      <trkpt lat="45.67044" lon="4.72468">
        <ele>304</ele>
        <time>2020-03-31T12:41:10.818Z</time>
      </trkpt>
      <trkpt lat="45.67051" lon="4.72495">
        <ele>303</ele>
        <time>2020-03-31T12:41:11.818Z</time>
      </trkpt>
      <trkpt lat="45.67057" lon="4.72516">
        <ele>303</ele>
        <time>2020-03-31T12:41:12.818Z</time>
      </trkpt>
      <trkpt lat="45.6706" lon="4.72576">
        <ele>299</ele>
        <time>2020-03-31T12:41:13.818Z</time>
      </trkpt>
      <trkpt lat="45.67056" lon="4.72603">
        <ele>297</ele>
        <time>2020-03-31T12:41:14.818Z</time>
      </trkpt>
      <trkpt lat="45.67048" lon="4.72625">
        <ele>295</ele>
        <time>2020-03-31T12:41:15.818Z</time>
      </trkpt>
      <trkpt lat="45.67031" lon="4.72658">
        <ele>292</ele>
        <time>2020-03-31T12:41:16.818Z</time>
      </trkpt>
      <trkpt lat="45.67012" lon="4.72675">
        <ele>289</ele>
        <time>2020-03-31T12:41:17.818Z</time>
      </trkpt>
      <trkpt lat="45.6701" lon="4.72692">
        <ele>288</ele>
        <time>2020-03-31T12:41:18.818Z</time>
      </trkpt>
      <trkpt lat="45.66998" lon="4.72705">
        <ele>286</ele>
        <time>2020-03-31T12:41:19.818Z</time>
      </trkpt>
      <trkpt lat="45.66972" lon="4.72725">
        <ele>286</ele>
        <time>2020-03-31T12:41:20.818Z</time>
      </trkpt>
      <trkpt lat="45.66945" lon="4.72724">
        <ele>287</ele>
        <time>2020-03-31T12:41:21.818Z</time>
      </trkpt>
      <trkpt lat="45.6693" lon="4.72737">
        <ele>288</ele>
        <time>2020-03-31T12:41:22.818Z</time>
      </trkpt>
      <trkpt lat="45.6692" lon="4.72772">
        <ele>288</ele>
        <time>2020-03-31T12:41:23.818Z</time>
      </trkpt>
      <trkpt lat="45.6692" lon="4.72833">
        <ele>290</ele>
        <time>2020-03-31T12:41:24.818Z</time>
      </trkpt>
      <trkpt lat="45.66919" lon="4.72867">
        <ele>291</ele>
        <time>2020-03-31T12:41:25.818Z</time>
      </trkpt>
      <trkpt lat="45.66887" lon="4.72922">
        <ele>294</ele>
        <time>2020-03-31T12:41:26.818Z</time>
      </trkpt>
      <trkpt lat="45.66854" lon="4.72976">
        <ele>296</ele>
        <time>2020-03-31T12:41:27.818Z</time>
      </trkpt>
      <trkpt lat="45.66829" lon="4.73019">
        <ele>297</ele>
        <time>2020-03-31T12:41:28.818Z</time>
      </trkpt>
      <trkpt lat="45.66819" lon="4.73044">
        <ele>298</ele>
        <time>2020-03-31T12:41:29.818Z</time>
      </trkpt>
      <trkpt lat="45.66799" lon="4.73079">
        <ele>299</ele>
        <time>2020-03-31T12:41:30.818Z</time>
      </trkpt>
      <trkpt lat="45.66764" lon="4.73153">
        <ele>301</ele>
        <time>2020-03-31T12:41:31.818Z</time>
      </trkpt>
      <trkpt lat="45.66731" lon="4.73217">
        <ele>303</ele>
        <time>2020-03-31T12:41:32.818Z</time>
      </trkpt>
      <trkpt lat="45.66698" lon="4.73264">
        <ele>305</ele>
        <time>2020-03-31T12:41:33.818Z</time>
      </trkpt>
      <trkpt lat="45.66681" lon="4.7328">
        <ele>305</ele>
        <time>2020-03-31T12:41:34.818Z</time>
      </trkpt>
      <trkpt lat="45.66651" lon="4.73293">
        <ele>305</ele>
        <time>2020-03-31T12:41:35.818Z</time>
      </trkpt>
      <trkpt lat="45.666" lon="4.73292">
        <ele>304</ele>
        <time>2020-03-31T12:41:36.818Z</time>
      </trkpt>
      <trkpt lat="45.66537" lon="4.73292">
        <ele>303</ele>
        <time>2020-03-31T12:41:37.818Z</time>
      </trkpt>
      <trkpt lat="45.6649" lon="4.73289">
        <ele>303</ele>
        <time>2020-03-31T12:41:38.818Z</time>
      </trkpt>
      <trkpt lat="45.66462" lon="4.73284">
        <ele>303</ele>
        <time>2020-03-31T12:41:39.818Z</time>
      </trkpt>
      <trkpt lat="45.66435" lon="4.73269">
        <ele>304</ele>
        <time>2020-03-31T12:41:40.818Z</time>
      </trkpt>
      <trkpt lat="45.66435" lon="4.73285">
        <ele>304</ele>
        <time>2020-03-31T12:41:41.818Z</time>
      </trkpt>
      <trkpt lat="45.66455" lon="4.73325">
        <ele>302</ele>
        <time>2020-03-31T12:41:42.818Z</time>
      </trkpt>
      <trkpt lat="45.66497" lon="4.73379">
        <ele>299</ele>
        <time>2020-03-31T12:41:43.818Z</time>
      </trkpt>
      <trkpt lat="45.66552" lon="4.73458">
        <ele>299</ele>
        <time>2020-03-31T12:41:44.818Z</time>
      </trkpt>
      <trkpt lat="45.66606" lon="4.73541">
        <ele>300</ele>
        <time>2020-03-31T12:41:45.818Z</time>
      </trkpt>
      <trkpt lat="45.66633" lon="4.73594">
        <ele>300</ele>
        <time>2020-03-31T12:41:46.818Z</time>
      </trkpt>
      <trkpt lat="45.66678" lon="4.7365">
        <ele>302</ele>
        <time>2020-03-31T12:41:47.818Z</time>
      </trkpt>
      <trkpt lat="45.66721" lon="4.73703">
        <ele>301</ele>
        <time>2020-03-31T12:41:48.818Z</time>
      </trkpt>
      <trkpt lat="45.66762" lon="4.73766">
        <ele>299</ele>
        <time>2020-03-31T12:41:49.818Z</time>
      </trkpt>
      <trkpt lat="45.66799" lon="4.73829">
        <ele>300</ele>
        <time>2020-03-31T12:41:50.818Z</time>
      </trkpt>
      <trkpt lat="45.66805" lon="4.73844">
        <ele>300</ele>
        <time>2020-03-31T12:41:51.818Z</time>
      </trkpt>
      <trkpt lat="45.66801" lon="4.73882">
        <ele>299</ele>
        <time>2020-03-31T12:41:52.818Z</time>
      </trkpt>
      <trkpt lat="45.66793" lon="4.7393">
        <ele>297</ele>
        <time>2020-03-31T12:41:53.818Z</time>
      </trkpt>
      <trkpt lat="45.66788" lon="4.73959">
        <ele>295</ele>
        <time>2020-03-31T12:41:54.818Z</time>
      </trkpt>
      <trkpt lat="45.66797" lon="4.73978">
        <ele>293</ele>
        <time>2020-03-31T12:41:55.818Z</time>
      </trkpt>
      <trkpt lat="45.66828" lon="4.74013">
        <ele>290</ele>
        <time>2020-03-31T12:41:56.818Z</time>
      </trkpt>
      <trkpt lat="45.66838" lon="4.74028">
        <ele>289</ele>
        <time>2020-03-31T12:41:57.818Z</time>
      </trkpt>
      <trkpt lat="45.66844" lon="4.74058">
        <ele>285</ele>
        <time>2020-03-31T12:41:58.818Z</time>
      </trkpt>
      <trkpt lat="45.6684" lon="4.74103">
        <ele>281</ele>
        <time>2020-03-31T12:41:59.818Z</time>
      </trkpt>
      <trkpt lat="45.66837" lon="4.74135">
        <ele>277</ele>
        <time>2020-03-31T12:42:00.818Z</time>
      </trkpt>
      <trkpt lat="45.66834" lon="4.74181">
        <ele>273</ele>
        <time>2020-03-31T12:42:01.818Z</time>
      </trkpt>
      <trkpt lat="45.66836" lon="4.74215">
        <ele>271</ele>
        <time>2020-03-31T12:42:02.818Z</time>
      </trkpt>
      <trkpt lat="45.66839" lon="4.74232">
        <ele>270</ele>
        <time>2020-03-31T12:42:03.818Z</time>
      </trkpt>
      <trkpt lat="45.6684" lon="4.74271">
        <ele>269</ele>
        <time>2020-03-31T12:42:04.818Z</time>
      </trkpt>
      <trkpt lat="45.66835" lon="4.74306">
        <ele>269</ele>
        <time>2020-03-31T12:42:05.818Z</time>
      </trkpt>
      <trkpt lat="45.6683" lon="4.74364">
        <ele>268</ele>
        <time>2020-03-31T12:42:06.818Z</time>
      </trkpt>
      <trkpt lat="45.6683" lon="4.74387">
        <ele>268</ele>
        <time>2020-03-31T12:42:07.818Z</time>
      </trkpt>
      <trkpt lat="45.66817" lon="4.74427">
        <ele>266</ele>
        <time>2020-03-31T12:42:08.818Z</time>
      </trkpt>
      <trkpt lat="45.66808" lon="4.74464">
        <ele>265</ele>
        <time>2020-03-31T12:42:09.818Z</time>
      </trkpt>
      <trkpt lat="45.66813" lon="4.74516">
        <ele>262</ele>
        <time>2020-03-31T12:42:10.818Z</time>
      </trkpt>
      <trkpt lat="45.66808" lon="4.74569">
        <ele>257</ele>
        <time>2020-03-31T12:42:11.818Z</time>
      </trkpt>
      <trkpt lat="45.66801" lon="4.74628">
        <ele>249</ele>
        <time>2020-03-31T12:42:12.818Z</time>
      </trkpt>
      <trkpt lat="45.66795" lon="4.74669">
        <ele>243</ele>
        <time>2020-03-31T12:42:13.818Z</time>
      </trkpt>
      <trkpt lat="45.6679" lon="4.74697">
        <ele>239</ele>
        <time>2020-03-31T12:42:14.818Z</time>
      </trkpt>
      <trkpt lat="45.6678" lon="4.74709">
        <ele>237</ele>
        <time>2020-03-31T12:42:15.818Z</time>
      </trkpt>
      <trkpt lat="45.66772" lon="4.74714">
        <ele>237</ele>
        <time>2020-03-31T12:42:16.818Z</time>
      </trkpt>
      <trkpt lat="45.66783" lon="4.74719">
        <ele>236</ele>
        <time>2020-03-31T12:42:17.818Z</time>
      </trkpt>
      <trkpt lat="45.66794" lon="4.74711">
        <ele>237</ele>
        <time>2020-03-31T12:42:18.818Z</time>
      </trkpt>
      <trkpt lat="45.6681" lon="4.74701">
        <ele>239</ele>
        <time>2020-03-31T12:42:19.818Z</time>
      </trkpt>
      <trkpt lat="45.66819" lon="4.74703">
        <ele>239</ele>
        <time>2020-03-31T12:42:20.818Z</time>
      </trkpt>
      <trkpt lat="45.66816" lon="4.74729">
        <ele>234</ele>
        <time>2020-03-31T12:42:21.818Z</time>
      </trkpt>
      <trkpt lat="45.66815" lon="4.74774">
        <ele>228</ele>
        <time>2020-03-31T12:42:22.818Z</time>
      </trkpt>
      <trkpt lat="45.66809" lon="4.74807">
        <ele>225</ele>
        <time>2020-03-31T12:42:23.818Z</time>
      </trkpt>
      <trkpt lat="45.66802" lon="4.74853">
        <ele>220</ele>
        <time>2020-03-31T12:42:24.818Z</time>
      </trkpt>
      <trkpt lat="45.66792" lon="4.74873">
        <ele>218</ele>
        <time>2020-03-31T12:42:25.818Z</time>
      </trkpt>
      <trkpt lat="45.66778" lon="4.74882">
        <ele>218</ele>
        <time>2020-03-31T12:42:26.818Z</time>
      </trkpt>
      <trkpt lat="45.66763" lon="4.74898">
        <ele>216</ele>
        <time>2020-03-31T12:42:27.818Z</time>
      </trkpt>
      <trkpt lat="45.66783" lon="4.75014">
        <ele>211</ele>
        <time>2020-03-31T12:42:28.818Z</time>
      </trkpt>
      <trkpt lat="45.67011" lon="4.75018">
        <ele>212</ele>
        <time>2020-03-31T12:42:29.818Z</time>
      </trkpt>
      <trkpt lat="45.6706" lon="4.7501">
        <ele>214</ele>
        <time>2020-03-31T12:42:30.818Z</time>
      </trkpt>
      <trkpt lat="45.67115" lon="4.75015">
        <ele>216</ele>
        <time>2020-03-31T12:42:31.818Z</time>
      </trkpt>
      <trkpt lat="45.67175" lon="4.75014">
        <ele>217</ele>
        <time>2020-03-31T12:42:32.818Z</time>
      </trkpt>
      <trkpt lat="45.67253" lon="4.75018">
        <ele>217</ele>
        <time>2020-03-31T12:42:33.818Z</time>
      </trkpt>
      <trkpt lat="45.67309" lon="4.75026">
        <ele>215</ele>
        <time>2020-03-31T12:42:34.818Z</time>
      </trkpt>
      <trkpt lat="45.67334" lon="4.75035">
        <ele>213</ele>
        <time>2020-03-31T12:42:35.818Z</time>
      </trkpt>
      <trkpt lat="45.67358" lon="4.7504">
        <ele>213</ele>
        <time>2020-03-31T12:42:36.818Z</time>
      </trkpt>
      <trkpt lat="45.6738" lon="4.75058">
        <ele>212</ele>
        <time>2020-03-31T12:42:37.818Z</time>
      </trkpt>
      <trkpt lat="45.67383" lon="4.75076">
        <ele>210</ele>
        <time>2020-03-31T12:42:38.818Z</time>
      </trkpt>
      <trkpt lat="45.67395" lon="4.75087">
        <ele>209</ele>
        <time>2020-03-31T12:42:39.818Z</time>
      </trkpt>
      <trkpt lat="45.67424" lon="4.75086">
        <ele>209</ele>
        <time>2020-03-31T12:42:40.818Z</time>
      </trkpt>
      <trkpt lat="45.67443" lon="4.75095">
        <ele>209</ele>
        <time>2020-03-31T12:42:41.818Z</time>
      </trkpt>
      <trkpt lat="45.67463" lon="4.75107">
        <ele>209</ele>
        <time>2020-03-31T12:42:42.818Z</time>
      </trkpt>
      <trkpt lat="45.67481" lon="4.75123">
        <ele>209</ele>
        <time>2020-03-31T12:42:43.818Z</time>
      </trkpt>
      <trkpt lat="45.67503" lon="4.75141">
        <ele>209</ele>
        <time>2020-03-31T12:42:44.818Z</time>
      </trkpt>
      <trkpt lat="45.67524" lon="4.75147">
        <ele>209</ele>
        <time>2020-03-31T12:42:45.818Z</time>
      </trkpt>
      <trkpt lat="45.67549" lon="4.75166">
        <ele>208</ele>
        <time>2020-03-31T12:42:46.818Z</time>
      </trkpt>
      <trkpt lat="45.67566" lon="4.75182">
        <ele>208</ele>
        <time>2020-03-31T12:42:47.818Z</time>
      </trkpt>
      <trkpt lat="45.67612" lon="4.75275">
        <ele>208</ele>
        <time>2020-03-31T12:42:48.818Z</time>
      </trkpt>
      <trkpt lat="45.67649" lon="4.75258">
        <ele>208</ele>
        <time>2020-03-31T12:42:49.818Z</time>
      </trkpt>
      <trkpt lat="45.67677" lon="4.7525">
        <ele>208</ele>
        <time>2020-03-31T12:42:50.818Z</time>
      </trkpt>
      <trkpt lat="45.67705" lon="4.75246">
        <ele>208</ele>
        <time>2020-03-31T12:42:51.818Z</time>
      </trkpt>
      <trkpt lat="45.67729" lon="4.75241">
        <ele>209</ele>
        <time>2020-03-31T12:42:52.818Z</time>
      </trkpt>
      <trkpt lat="45.67736" lon="4.75239">
        <ele>209</ele>
        <time>2020-03-31T12:42:53.818Z</time>
      </trkpt>
      <trkpt lat="45.6779" lon="4.752">
        <ele>208</ele>
        <time>2020-03-31T12:42:54.818Z</time>
      </trkpt>
      <trkpt lat="45.67768" lon="4.7515">
        <ele>208</ele>
        <time>2020-03-31T12:42:55.818Z</time>
      </trkpt>
      <trkpt lat="45.67744" lon="4.75092">
        <ele>208</ele>
        <time>2020-03-31T12:42:56.818Z</time>
      </trkpt>
      <trkpt lat="45.67728" lon="4.75055">
        <ele>213</ele>
        <time>2020-03-31T12:42:57.818Z</time>
      </trkpt>
      <trkpt lat="45.6772" lon="4.75032">
        <ele>216</ele>
        <time>2020-03-31T12:42:58.818Z</time>
      </trkpt>
      <trkpt lat="45.67756" lon="4.7501">
        <ele>217</ele>
        <time>2020-03-31T12:42:59.818Z</time>
      </trkpt>
      <trkpt lat="45.67782" lon="4.74998">
        <ele>216</ele>
        <time>2020-03-31T12:43:00.818Z</time>
      </trkpt>
      <trkpt lat="45.67804" lon="4.74988">
        <ele>216</ele>
        <time>2020-03-31T12:43:01.818Z</time>
      </trkpt>
      <trkpt lat="45.6784" lon="4.74972">
        <ele>215</ele>
        <time>2020-03-31T12:43:02.818Z</time>
      </trkpt>
      <trkpt lat="45.67866" lon="4.74947">
        <ele>217</ele>
        <time>2020-03-31T12:43:03.818Z</time>
      </trkpt>
      <trkpt lat="45.67886" lon="4.74924">
        <ele>217</ele>
        <time>2020-03-31T12:43:04.818Z</time>
      </trkpt>
      <trkpt lat="45.67898" lon="4.74888">
        <ele>220</ele>
        <time>2020-03-31T12:43:05.818Z</time>
      </trkpt>
      <trkpt lat="45.67917" lon="4.74831">
        <ele>225</ele>
        <time>2020-03-31T12:43:06.818Z</time>
      </trkpt>
      <trkpt lat="45.67958" lon="4.74798">
        <ele>227</ele>
        <time>2020-03-31T12:43:07.818Z</time>
      </trkpt>
      <trkpt lat="45.67995" lon="4.74775">
        <ele>226</ele>
        <time>2020-03-31T12:43:08.818Z</time>
      </trkpt>
      <trkpt lat="45.68012" lon="4.74769">
        <ele>226</ele>
        <time>2020-03-31T12:43:09.818Z</time>
      </trkpt>
      <trkpt lat="45.68033" lon="4.74778">
        <ele>224</ele>
        <time>2020-03-31T12:43:10.818Z</time>
      </trkpt>
      <trkpt lat="45.68057" lon="4.74784">
        <ele>223</ele>
        <time>2020-03-31T12:43:11.818Z</time>
      </trkpt>
      <trkpt lat="45.68085" lon="4.74786">
        <ele>222</ele>
        <time>2020-03-31T12:43:12.818Z</time>
      </trkpt>
      <trkpt lat="45.68115" lon="4.74765">
        <ele>224</ele>
        <time>2020-03-31T12:43:13.818Z</time>
      </trkpt>
      <trkpt lat="45.68145" lon="4.74735">
        <ele>226</ele>
        <time>2020-03-31T12:43:14.818Z</time>
      </trkpt>
      <trkpt lat="45.68171" lon="4.7471">
        <ele>227</ele>
        <time>2020-03-31T12:43:15.818Z</time>
      </trkpt>
      <trkpt lat="45.6819" lon="4.74697">
        <ele>227</ele>
        <time>2020-03-31T12:43:16.818Z</time>
      </trkpt>
      <trkpt lat="45.68219" lon="4.74694">
        <ele>224</ele>
        <time>2020-03-31T12:43:17.818Z</time>
      </trkpt>
      <trkpt lat="45.68254" lon="4.7466">
        <ele>225</ele>
        <time>2020-03-31T12:43:18.818Z</time>
      </trkpt>
      <trkpt lat="45.683" lon="4.74626">
        <ele>226</ele>
        <time>2020-03-31T12:43:19.818Z</time>
      </trkpt>
      <trkpt lat="45.68332" lon="4.74608">
        <ele>224</ele>
        <time>2020-03-31T12:43:20.818Z</time>
      </trkpt>
      <trkpt lat="45.68373" lon="4.74596">
        <ele>222</ele>
        <time>2020-03-31T12:43:21.818Z</time>
      </trkpt>
      <trkpt lat="45.68419" lon="4.74548">
        <ele>221</ele>
        <time>2020-03-31T12:43:22.818Z</time>
      </trkpt>
      <trkpt lat="45.68449" lon="4.74528">
        <ele>222</ele>
        <time>2020-03-31T12:43:23.818Z</time>
      </trkpt>
      <trkpt lat="45.68491" lon="4.74509">
        <ele>223</ele>
        <time>2020-03-31T12:43:24.818Z</time>
      </trkpt>
      <trkpt lat="45.68519" lon="4.74484">
        <ele>225</ele>
        <time>2020-03-31T12:43:25.818Z</time>
      </trkpt>
      <trkpt lat="45.68553" lon="4.74442">
        <ele>228</ele>
        <time>2020-03-31T12:43:26.818Z</time>
      </trkpt>
      <trkpt lat="45.68605" lon="4.74394">
        <ele>227</ele>
        <time>2020-03-31T12:43:27.818Z</time>
      </trkpt>
      <trkpt lat="45.68637" lon="4.74363">
        <ele>229</ele>
        <time>2020-03-31T12:43:28.818Z</time>
      </trkpt>
      <trkpt lat="45.68655" lon="4.74338">
        <ele>230</ele>
        <time>2020-03-31T12:43:29.818Z</time>
      </trkpt>
      <trkpt lat="45.68666" lon="4.74329">
        <ele>230</ele>
        <time>2020-03-31T12:43:30.818Z</time>
      </trkpt>
      <trkpt lat="45.68694" lon="4.74333">
        <ele>225</ele>
        <time>2020-03-31T12:43:31.818Z</time>
      </trkpt>
      <trkpt lat="45.68718" lon="4.74352">
        <ele>221</ele>
        <time>2020-03-31T12:43:32.818Z</time>
      </trkpt>
      <trkpt lat="45.68766" lon="4.74392">
        <ele>218</ele>
        <time>2020-03-31T12:43:33.818Z</time>
      </trkpt>
      <trkpt lat="45.68818" lon="4.74428">
        <ele>222</ele>
        <time>2020-03-31T12:43:34.818Z</time>
      </trkpt>
      <trkpt lat="45.68826" lon="4.74399">
        <ele>222</ele>
        <time>2020-03-31T12:43:35.818Z</time>
      </trkpt>
      <trkpt lat="45.68848" lon="4.7436">
        <ele>226</ele>
        <time>2020-03-31T12:43:36.818Z</time>
      </trkpt>
      <trkpt lat="45.68867" lon="4.74326">
        <ele>231</ele>
        <time>2020-03-31T12:43:37.818Z</time>
      </trkpt>
      <trkpt lat="45.68883" lon="4.74269">
        <ele>234</ele>
        <time>2020-03-31T12:43:38.818Z</time>
      </trkpt>
      <trkpt lat="45.68898" lon="4.74221">
        <ele>234</ele>
        <time>2020-03-31T12:43:39.818Z</time>
      </trkpt>
      <trkpt lat="45.68906" lon="4.74183">
        <ele>231</ele>
        <time>2020-03-31T12:43:40.818Z</time>
      </trkpt>
      <trkpt lat="45.68926" lon="4.74137">
        <ele>230</ele>
        <time>2020-03-31T12:43:41.818Z</time>
      </trkpt>
      <trkpt lat="45.68954" lon="4.74099">
        <ele>232</ele>
        <time>2020-03-31T12:43:42.818Z</time>
      </trkpt>
      <trkpt lat="45.68979" lon="4.74057">
        <ele>233</ele>
        <time>2020-03-31T12:43:43.818Z</time>
      </trkpt>
      <trkpt lat="45.68987" lon="4.74042">
        <ele>233</ele>
        <time>2020-03-31T12:43:44.818Z</time>
      </trkpt>
      <trkpt lat="45.68997" lon="4.74014">
        <ele>233</ele>
        <time>2020-03-31T12:43:45.818Z</time>
      </trkpt>
      <trkpt lat="45.69019" lon="4.7397">
        <ele>236</ele>
        <time>2020-03-31T12:43:46.818Z</time>
      </trkpt>
      <trkpt lat="45.69041" lon="4.73914">
        <ele>237</ele>
        <time>2020-03-31T12:43:47.818Z</time>
      </trkpt>
      <trkpt lat="45.69056" lon="4.73861">
        <ele>237</ele>
        <time>2020-03-31T12:43:48.818Z</time>
      </trkpt>
      <trkpt lat="45.69059" lon="4.73809">
        <ele>236</ele>
        <time>2020-03-31T12:43:49.818Z</time>
      </trkpt>
      <trkpt lat="45.69056" lon="4.73747">
        <ele>236</ele>
        <time>2020-03-31T12:43:50.818Z</time>
      </trkpt>
      <trkpt lat="45.69064" lon="4.737">
        <ele>233</ele>
        <time>2020-03-31T12:43:51.818Z</time>
      </trkpt>
      <trkpt lat="45.69089" lon="4.73656">
        <ele>233</ele>
        <time>2020-03-31T12:43:52.818Z</time>
      </trkpt>
      <trkpt lat="45.69103" lon="4.73616">
        <ele>233</ele>
        <time>2020-03-31T12:43:53.818Z</time>
      </trkpt>
      <trkpt lat="45.69104" lon="4.73584">
        <ele>230</ele>
        <time>2020-03-31T12:43:54.818Z</time>
      </trkpt>
      <trkpt lat="45.69111" lon="4.73556">
        <ele>230</ele>
        <time>2020-03-31T12:43:55.818Z</time>
      </trkpt>
      <trkpt lat="45.69131" lon="4.7352">
        <ele>230</ele>
        <time>2020-03-31T12:43:56.818Z</time>
      </trkpt>
      <trkpt lat="45.69149" lon="4.73488">
        <ele>229</ele>
        <time>2020-03-31T12:43:57.818Z</time>
      </trkpt>
      <trkpt lat="45.69173" lon="4.73461">
        <ele>229</ele>
        <time>2020-03-31T12:43:58.818Z</time>
      </trkpt>
      <trkpt lat="45.6919" lon="4.73424">
        <ele>227</ele>
        <time>2020-03-31T12:43:59.818Z</time>
      </trkpt>
      <trkpt lat="45.69201" lon="4.73368">
        <ele>227</ele>
        <time>2020-03-31T12:44:00.818Z</time>
      </trkpt>
      <trkpt lat="45.69213" lon="4.73313">
        <ele>229</ele>
        <time>2020-03-31T12:44:01.818Z</time>
      </trkpt>
      <trkpt lat="45.69225" lon="4.7328">
        <ele>233</ele>
        <time>2020-03-31T12:44:02.818Z</time>
      </trkpt>
      <trkpt lat="45.69228" lon="4.73243">
        <ele>236</ele>
        <time>2020-03-31T12:44:03.818Z</time>
      </trkpt>
      <trkpt lat="45.69213" lon="4.73196">
        <ele>239</ele>
        <time>2020-03-31T12:44:04.818Z</time>
      </trkpt>
      <trkpt lat="45.69195" lon="4.73157">
        <ele>238</ele>
        <time>2020-03-31T12:44:05.818Z</time>
      </trkpt>
      <trkpt lat="45.69153" lon="4.73093">
        <ele>236</ele>
        <time>2020-03-31T12:44:06.818Z</time>
      </trkpt>
      <trkpt lat="45.69142" lon="4.73064">
        <ele>236</ele>
        <time>2020-03-31T12:44:07.818Z</time>
      </trkpt>
      <trkpt lat="45.69147" lon="4.73044">
        <ele>238</ele>
        <time>2020-03-31T12:44:08.818Z</time>
      </trkpt>
      <trkpt lat="45.6916" lon="4.73001">
        <ele>242</ele>
        <time>2020-03-31T12:44:09.818Z</time>
      </trkpt>
      <trkpt lat="45.69173" lon="4.7295">
        <ele>242</ele>
        <time>2020-03-31T12:44:10.818Z</time>
      </trkpt>
      <trkpt lat="45.69182" lon="4.72925">
        <ele>243</ele>
        <time>2020-03-31T12:44:11.818Z</time>
      </trkpt>
      <trkpt lat="45.692" lon="4.72913">
        <ele>248</ele>
        <time>2020-03-31T12:44:12.818Z</time>
      </trkpt>
      <trkpt lat="45.69221" lon="4.72893">
        <ele>250</ele>
        <time>2020-03-31T12:44:13.818Z</time>
      </trkpt>
      <trkpt lat="45.69236" lon="4.7287">
        <ele>250</ele>
        <time>2020-03-31T12:44:14.818Z</time>
      </trkpt>
      <trkpt lat="45.69251" lon="4.72849">
        <ele>250</ele>
        <time>2020-03-31T12:44:15.818Z</time>
      </trkpt>
      <trkpt lat="45.69261" lon="4.72826">
        <ele>247</ele>
        <time>2020-03-31T12:44:16.818Z</time>
      </trkpt>
      <trkpt lat="45.69272" lon="4.72813">
        <ele>247</ele>
        <time>2020-03-31T12:44:17.818Z</time>
      </trkpt>
      <trkpt lat="45.6928" lon="4.72817">
        <ele>249</ele>
        <time>2020-03-31T12:44:18.818Z</time>
      </trkpt>
      <trkpt lat="45.69274" lon="4.72839">
        <ele>252</ele>
        <time>2020-03-31T12:44:19.818Z</time>
      </trkpt>
      <trkpt lat="45.69258" lon="4.72859">
        <ele>253</ele>
        <time>2020-03-31T12:44:20.818Z</time>
      </trkpt>
      <trkpt lat="45.69248" lon="4.72888">
        <ele>256</ele>
        <time>2020-03-31T12:44:21.818Z</time>
      </trkpt>
      <trkpt lat="45.69233" lon="4.72916">
        <ele>257</ele>
        <time>2020-03-31T12:44:22.818Z</time>
      </trkpt>
      <trkpt lat="45.69222" lon="4.72939">
        <ele>255</ele>
        <time>2020-03-31T12:44:23.818Z</time>
      </trkpt>
      <trkpt lat="45.69215" lon="4.72951">
        <ele>253</ele>
        <time>2020-03-31T12:44:24.818Z</time>
      </trkpt>
      <trkpt lat="45.69215" lon="4.72957">
        <ele>253</ele>
        <time>2020-03-31T12:44:25.818Z</time>
      </trkpt>
      <trkpt lat="45.69222" lon="4.7296">
        <ele>255</ele>
        <time>2020-03-31T12:44:26.818Z</time>
      </trkpt>
      <trkpt lat="45.69233" lon="4.72949">
        <ele>258</ele>
        <time>2020-03-31T12:44:27.818Z</time>
      </trkpt>
      <trkpt lat="45.69249" lon="4.72928">
        <ele>262</ele>
        <time>2020-03-31T12:44:28.818Z</time>
      </trkpt>
      <trkpt lat="45.69262" lon="4.72909">
        <ele>262</ele>
        <time>2020-03-31T12:44:29.818Z</time>
      </trkpt>
      <trkpt lat="45.69271" lon="4.72892">
        <ele>261</ele>
        <time>2020-03-31T12:44:30.818Z</time>
      </trkpt>
      <trkpt lat="45.69281" lon="4.72879">
        <ele>260</ele>
        <time>2020-03-31T12:44:31.818Z</time>
      </trkpt>
      <trkpt lat="45.69292" lon="4.72862">
        <ele>259</ele>
        <time>2020-03-31T12:44:32.818Z</time>
      </trkpt>
      <trkpt lat="45.693" lon="4.72862">
        <ele>260</ele>
        <time>2020-03-31T12:44:33.818Z</time>
      </trkpt>
      <trkpt lat="45.693" lon="4.72878">
        <ele>263</ele>
        <time>2020-03-31T12:44:34.818Z</time>
      </trkpt>
      <trkpt lat="45.69289" lon="4.72891">
        <ele>263</ele>
        <time>2020-03-31T12:44:35.818Z</time>
      </trkpt>
      <trkpt lat="45.69282" lon="4.72906">
        <ele>265</ele>
        <time>2020-03-31T12:44:36.818Z</time>
      </trkpt>
      <trkpt lat="45.69286" lon="4.72914">
        <ele>267</ele>
        <time>2020-03-31T12:44:37.818Z</time>
      </trkpt>
      <trkpt lat="45.69301" lon="4.72909">
        <ele>269</ele>
        <time>2020-03-31T12:44:38.818Z</time>
      </trkpt>
      <trkpt lat="45.69316" lon="4.72911">
        <ele>271</ele>
        <time>2020-03-31T12:44:39.818Z</time>
      </trkpt>
      <trkpt lat="45.69339" lon="4.72923">
        <ele>275</ele>
        <time>2020-03-31T12:44:40.818Z</time>
      </trkpt>
      <trkpt lat="45.69367" lon="4.72931">
        <ele>277</ele>
        <time>2020-03-31T12:44:41.818Z</time>
      </trkpt>
      <trkpt lat="45.69406" lon="4.72939">
        <ele>280</ele>
        <time>2020-03-31T12:44:42.818Z</time>
      </trkpt>
      <trkpt lat="45.69439" lon="4.72947">
        <ele>284</ele>
        <time>2020-03-31T12:44:43.818Z</time>
      </trkpt>
      <trkpt lat="45.69454" lon="4.72948">
        <ele>285</ele>
        <time>2020-03-31T12:44:44.818Z</time>
      </trkpt>
      <trkpt lat="45.69482" lon="4.72967">
        <ele>288</ele>
        <time>2020-03-31T12:44:45.818Z</time>
      </trkpt>
      <trkpt lat="45.69524" lon="4.7299">
        <ele>291</ele>
        <time>2020-03-31T12:44:46.818Z</time>
      </trkpt>
      <trkpt lat="45.6958" lon="4.73033">
        <ele>292</ele>
        <time>2020-03-31T12:44:47.818Z</time>
      </trkpt>
      <trkpt lat="45.69621" lon="4.73057">
        <ele>293</ele>
        <time>2020-03-31T12:44:48.818Z</time>
      </trkpt>
      <trkpt lat="45.6966" lon="4.73081">
        <ele>293</ele>
        <time>2020-03-31T12:44:49.818Z</time>
      </trkpt>
      <trkpt lat="45.69734" lon="4.73107">
        <ele>295</ele>
        <time>2020-03-31T12:44:50.818Z</time>
      </trkpt>
      <trkpt lat="45.69762" lon="4.73112">
        <ele>296</ele>
        <time>2020-03-31T12:44:51.818Z</time>
      </trkpt>
      <trkpt lat="45.69791" lon="4.73117">
        <ele>298</ele>
        <time>2020-03-31T12:44:52.818Z</time>
      </trkpt>
      <trkpt lat="45.69813" lon="4.73126">
        <ele>299</ele>
        <time>2020-03-31T12:44:53.818Z</time>
      </trkpt>
      <trkpt lat="45.69837" lon="4.73143">
        <ele>300</ele>
        <time>2020-03-31T12:44:54.818Z</time>
      </trkpt>
      <trkpt lat="45.69858" lon="4.73154">
        <ele>301</ele>
        <time>2020-03-31T12:44:55.818Z</time>
      </trkpt>
      <trkpt lat="45.69909" lon="4.73177">
        <ele>302</ele>
        <time>2020-03-31T12:44:56.818Z</time>
      </trkpt>
      <trkpt lat="45.69939" lon="4.73191">
        <ele>303</ele>
        <time>2020-03-31T12:44:57.818Z</time>
      </trkpt>
      <trkpt lat="45.69977" lon="4.73215">
        <ele>304</ele>
        <time>2020-03-31T12:44:58.818Z</time>
      </trkpt>
      <trkpt lat="45.70001" lon="4.7324">
        <ele>304</ele>
        <time>2020-03-31T12:44:59.818Z</time>
      </trkpt>
      <trkpt lat="45.70028" lon="4.73268">
        <ele>304</ele>
        <time>2020-03-31T12:45:00.818Z</time>
      </trkpt>
      <trkpt lat="45.70065" lon="4.73301">
        <ele>303</ele>
        <time>2020-03-31T12:45:01.818Z</time>
      </trkpt>
      <trkpt lat="45.70077" lon="4.7332">
        <ele>303</ele>
        <time>2020-03-31T12:45:02.818Z</time>
      </trkpt>
      <trkpt lat="45.70094" lon="4.7335">
        <ele>304</ele>
        <time>2020-03-31T12:45:03.818Z</time>
      </trkpt>
      <trkpt lat="45.70116" lon="4.73373">
        <ele>304</ele>
        <time>2020-03-31T12:45:04.818Z</time>
      </trkpt>
      <trkpt lat="45.70143" lon="4.73415">
        <ele>305</ele>
        <time>2020-03-31T12:45:05.818Z</time>
      </trkpt>
      <trkpt lat="45.70182" lon="4.73459">
        <ele>306</ele>
        <time>2020-03-31T12:45:06.818Z</time>
      </trkpt>
      <trkpt lat="45.70213" lon="4.73493">
        <ele>306</ele>
        <time>2020-03-31T12:45:07.818Z</time>
      </trkpt>
      <trkpt lat="45.70267" lon="4.73551">
        <ele>307</ele>
        <time>2020-03-31T12:45:08.818Z</time>
      </trkpt>
      <trkpt lat="45.70258" lon="4.73581">
        <ele>308</ele>
        <time>2020-03-31T12:45:09.818Z</time>
      </trkpt>
      <trkpt lat="45.70251" lon="4.73616">
        <ele>310</ele>
        <time>2020-03-31T12:45:10.818Z</time>
      </trkpt>
      <trkpt lat="45.70244" lon="4.73666">
        <ele>312</ele>
        <time>2020-03-31T12:45:11.818Z</time>
      </trkpt>
      <trkpt lat="45.70243" lon="4.73741">
        <ele>314</ele>
        <time>2020-03-31T12:45:12.818Z</time>
      </trkpt>
      <trkpt lat="45.70236" lon="4.73815">
        <ele>317</ele>
        <time>2020-03-31T12:45:13.818Z</time>
      </trkpt>
      <trkpt lat="45.70227" lon="4.7383">
        <ele>318</ele>
        <time>2020-03-31T12:45:14.818Z</time>
      </trkpt>
      <trkpt lat="45.70193" lon="4.73853">
        <ele>320</ele>
        <time>2020-03-31T12:45:15.818Z</time>
      </trkpt>
      <trkpt lat="45.70173" lon="4.73875">
        <ele>321</ele>
        <time>2020-03-31T12:45:16.818Z</time>
      </trkpt>
      <trkpt lat="45.70148" lon="4.73936">
        <ele>323</ele>
        <time>2020-03-31T12:45:17.818Z</time>
      </trkpt>
      <trkpt lat="45.70098" lon="4.74084">
        <ele>320</ele>
        <time>2020-03-31T12:45:18.818Z</time>
      </trkpt>
      <trkpt lat="45.70103" lon="4.74091">
        <ele>320</ele>
        <time>2020-03-31T12:45:19.818Z</time>
      </trkpt>
      <trkpt lat="45.70069" lon="4.74211">
        <ele>317</ele>
        <time>2020-03-31T12:45:20.818Z</time>
      </trkpt>
      <trkpt lat="45.70038" lon="4.7434">
        <ele>313</ele>
        <time>2020-03-31T12:45:21.818Z</time>
      </trkpt>
      <trkpt lat="45.7" lon="4.74464">
        <ele>309</ele>
        <time>2020-03-31T12:45:22.818Z</time>
      </trkpt>
      <trkpt lat="45.69902" lon="4.74722">
        <ele>305</ele>
        <time>2020-03-31T12:45:23.818Z</time>
      </trkpt>
      <trkpt lat="45.69908" lon="4.74727">
        <ele>305</ele>
        <time>2020-03-31T12:45:24.818Z</time>
      </trkpt>
      <trkpt lat="45.699" lon="4.74761">
        <ele>304</ele>
        <time>2020-03-31T12:45:25.818Z</time>
      </trkpt>
      <trkpt lat="45.69901" lon="4.74793">
        <ele>302</ele>
        <time>2020-03-31T12:45:26.818Z</time>
      </trkpt>
      <trkpt lat="45.699" lon="4.74961">
        <ele>294</ele>
        <time>2020-03-31T12:45:27.818Z</time>
      </trkpt>
      <trkpt lat="45.69897" lon="4.74974">
        <ele>293</ele>
        <time>2020-03-31T12:45:28.818Z</time>
      </trkpt>
      <trkpt lat="45.69878" lon="4.75116">
        <ele>285</ele>
        <time>2020-03-31T12:45:29.818Z</time>
      </trkpt>
      <trkpt lat="45.69859" lon="4.75238">
        <ele>283</ele>
        <time>2020-03-31T12:45:30.818Z</time>
      </trkpt>
      <trkpt lat="45.69851" lon="4.75293">
        <ele>280</ele>
        <time>2020-03-31T12:45:31.818Z</time>
      </trkpt>
      <trkpt lat="45.69848" lon="4.75342">
        <ele>278</ele>
        <time>2020-03-31T12:45:32.818Z</time>
      </trkpt>
      <trkpt lat="45.69848" lon="4.75434">
        <ele>277</ele>
        <time>2020-03-31T12:45:33.818Z</time>
      </trkpt>
      <trkpt lat="45.69897" lon="4.75432">
        <ele>277</ele>
        <time>2020-03-31T12:45:34.818Z</time>
      </trkpt>
      <trkpt lat="45.69953" lon="4.75432">
        <ele>275</ele>
        <time>2020-03-31T12:45:35.818Z</time>
      </trkpt>
      <trkpt lat="45.70047" lon="4.75432">
        <ele>273</ele>
        <time>2020-03-31T12:45:36.818Z</time>
      </trkpt>
      <trkpt lat="45.70044" lon="4.75447">
        <ele>273</ele>
        <time>2020-03-31T12:45:37.818Z</time>
      </trkpt>
      <trkpt lat="45.70061" lon="4.75449">
        <ele>273</ele>
        <time>2020-03-31T12:45:38.818Z</time>
      </trkpt>
      <trkpt lat="45.70083" lon="4.75426">
        <ele>273</ele>
        <time>2020-03-31T12:45:39.818Z</time>
      </trkpt>
      <trkpt lat="45.70103" lon="4.75403">
        <ele>273</ele>
        <time>2020-03-31T12:45:40.818Z</time>
      </trkpt>
      <trkpt lat="45.70127" lon="4.75403">
        <ele>273</ele>
        <time>2020-03-31T12:45:41.818Z</time>
      </trkpt>
      <trkpt lat="45.70174" lon="4.75396">
        <ele>272</ele>
        <time>2020-03-31T12:45:42.818Z</time>
      </trkpt>
      <trkpt lat="45.70226" lon="4.75378">
        <ele>272</ele>
        <time>2020-03-31T12:45:43.818Z</time>
      </trkpt>
      <trkpt lat="45.70278" lon="4.75355">
        <ele>271</ele>
        <time>2020-03-31T12:45:44.818Z</time>
      </trkpt>
      <trkpt lat="45.70328" lon="4.75331">
        <ele>271</ele>
        <time>2020-03-31T12:45:45.818Z</time>
      </trkpt>
      <trkpt lat="45.70406" lon="4.75285">
        <ele>271</ele>
        <time>2020-03-31T12:45:46.818Z</time>
      </trkpt>
      <trkpt lat="45.7046" lon="4.75247">
        <ele>273</ele>
        <time>2020-03-31T12:45:47.818Z</time>
      </trkpt>
      <trkpt lat="45.70462" lon="4.75271">
        <ele>272</ele>
        <time>2020-03-31T12:45:48.818Z</time>
      </trkpt>
      <trkpt lat="45.70463" lon="4.75316">
        <ele>272</ele>
        <time>2020-03-31T12:45:49.818Z</time>
      </trkpt>
      <trkpt lat="45.70459" lon="4.75335">
        <ele>272</ele>
        <time>2020-03-31T12:45:50.818Z</time>
      </trkpt>
      <trkpt lat="45.70458" lon="4.75359">
        <ele>273</ele>
        <time>2020-03-31T12:45:51.818Z</time>
      </trkpt>
      <trkpt lat="45.70478" lon="4.75367">
        <ele>275</ele>
        <time>2020-03-31T12:45:52.818Z</time>
      </trkpt>
      <trkpt lat="45.70493" lon="4.75311">
        <ele>274</ele>
        <time>2020-03-31T12:45:53.818Z</time>
      </trkpt>
      <trkpt lat="45.70519" lon="4.75304">
        <ele>277</ele>
        <time>2020-03-31T12:45:54.818Z</time>
      </trkpt>
      <trkpt lat="45.70535" lon="4.75293">
        <ele>279</ele>
        <time>2020-03-31T12:45:55.818Z</time>
      </trkpt>
      <trkpt lat="45.70549" lon="4.75249">
        <ele>280</ele>
        <time>2020-03-31T12:45:56.818Z</time>
      </trkpt>
      <trkpt lat="45.70549" lon="4.75233">
        <ele>280</ele>
        <time>2020-03-31T12:45:57.818Z</time>
      </trkpt>
      <trkpt lat="45.7058" lon="4.75177">
        <ele>279</ele>
        <time>2020-03-31T12:45:58.818Z</time>
      </trkpt>
      <trkpt lat="45.70621" lon="4.75156">
        <ele>282</ele>
        <time>2020-03-31T12:45:59.818Z</time>
      </trkpt>
      <trkpt lat="45.70671" lon="4.75142">
        <ele>286</ele>
        <time>2020-03-31T12:46:00.818Z</time>
      </trkpt>
      <trkpt lat="45.70684" lon="4.75141">
        <ele>287</ele>
        <time>2020-03-31T12:46:01.818Z</time>
      </trkpt>
      <trkpt lat="45.70702" lon="4.75133">
        <ele>287</ele>
        <time>2020-03-31T12:46:02.818Z</time>
      </trkpt>
      <trkpt lat="45.70746" lon="4.75126">
        <ele>288</ele>
        <time>2020-03-31T12:46:03.818Z</time>
      </trkpt>
      <trkpt lat="45.70754" lon="4.75114">
        <ele>288</ele>
        <time>2020-03-31T12:46:04.818Z</time>
      </trkpt>
      <trkpt lat="45.70755" lon="4.75101">
        <ele>287</ele>
        <time>2020-03-31T12:46:05.818Z</time>
      </trkpt>
      <trkpt lat="45.7075" lon="4.7505">
        <ele>285</ele>
        <time>2020-03-31T12:46:06.818Z</time>
      </trkpt>
      <trkpt lat="45.70749" lon="4.75027">
        <ele>286</ele>
        <time>2020-03-31T12:46:07.818Z</time>
      </trkpt>
      <trkpt lat="45.70752" lon="4.75012">
        <ele>286</ele>
        <time>2020-03-31T12:46:08.818Z</time>
      </trkpt>
      <trkpt lat="45.7077" lon="4.74986">
        <ele>290</ele>
        <time>2020-03-31T12:46:09.818Z</time>
      </trkpt>
      <trkpt lat="45.70775" lon="4.74977">
        <ele>290</ele>
        <time>2020-03-31T12:46:10.818Z</time>
      </trkpt>
      <trkpt lat="45.70781" lon="4.74957">
        <ele>291</ele>
        <time>2020-03-31T12:46:11.818Z</time>
      </trkpt>
      <trkpt lat="45.70802" lon="4.74939">
        <ele>292</ele>
        <time>2020-03-31T12:46:12.818Z</time>
      </trkpt>
      <trkpt lat="45.70825" lon="4.74924">
        <ele>292</ele>
        <time>2020-03-31T12:46:13.818Z</time>
      </trkpt>
      <trkpt lat="45.70839" lon="4.74917">
        <ele>292</ele>
        <time>2020-03-31T12:46:14.818Z</time>
      </trkpt>
      <trkpt lat="45.70867" lon="4.74903">
        <ele>295</ele>
        <time>2020-03-31T12:46:15.818Z</time>
      </trkpt>
      <trkpt lat="45.7089" lon="4.74896">
        <ele>296</ele>
        <time>2020-03-31T12:46:16.818Z</time>
      </trkpt>
      <trkpt lat="45.70926" lon="4.74885">
        <ele>298</ele>
        <time>2020-03-31T12:46:17.818Z</time>
      </trkpt>
      <trkpt lat="45.70955" lon="4.74873">
        <ele>298</ele>
        <time>2020-03-31T12:46:18.818Z</time>
      </trkpt>
      <trkpt lat="45.7098" lon="4.74862">
        <ele>299</ele>
        <time>2020-03-31T12:46:19.818Z</time>
      </trkpt>
      <trkpt lat="45.70993" lon="4.74859">
        <ele>299</ele>
        <time>2020-03-31T12:46:20.818Z</time>
      </trkpt>
      <trkpt lat="45.71019" lon="4.74845">
        <ele>299</ele>
        <time>2020-03-31T12:46:21.818Z</time>
      </trkpt>
      <trkpt lat="45.71098" lon="4.7483">
        <ele>302</ele>
        <time>2020-03-31T12:46:22.818Z</time>
      </trkpt>
      <trkpt lat="45.71093" lon="4.74785">
        <ele>303</ele>
        <time>2020-03-31T12:46:23.818Z</time>
      </trkpt>
      <trkpt lat="45.71087" lon="4.74751">
        <ele>304</ele>
        <time>2020-03-31T12:46:24.818Z</time>
      </trkpt>
      <trkpt lat="45.71076" lon="4.74696">
        <ele>306</ele>
        <time>2020-03-31T12:46:25.818Z</time>
      </trkpt>
      <trkpt lat="45.71064" lon="4.74638">
        <ele>307</ele>
        <time>2020-03-31T12:46:26.818Z</time>
      </trkpt>
      <trkpt lat="45.71046" lon="4.74588">
        <ele>306</ele>
        <time>2020-03-31T12:46:27.818Z</time>
      </trkpt>
      <trkpt lat="45.71043" lon="4.74573">
        <ele>306</ele>
        <time>2020-03-31T12:46:28.818Z</time>
      </trkpt>
      <trkpt lat="45.71046" lon="4.74553">
        <ele>306</ele>
        <time>2020-03-31T12:46:29.818Z</time>
      </trkpt>
      <trkpt lat="45.71043" lon="4.74532">
        <ele>306</ele>
        <time>2020-03-31T12:46:30.818Z</time>
      </trkpt>
      <trkpt lat="45.71036" lon="4.74515">
        <ele>306</ele>
        <time>2020-03-31T12:46:31.818Z</time>
      </trkpt>
      <trkpt lat="45.7103" lon="4.74496">
        <ele>306</ele>
        <time>2020-03-31T12:46:32.818Z</time>
      </trkpt>
      <trkpt lat="45.71028" lon="4.74483">
        <ele>306</ele>
        <time>2020-03-31T12:46:33.818Z</time>
      </trkpt>
      <trkpt lat="45.71024" lon="4.74482">
        <ele>306</ele>
        <time>2020-03-31T12:46:34.818Z</time>
      </trkpt>
    </trkseg>
  </trk>
</gpx>